sensor_id;sensor_type;location;lat;lon;timestamp;temperature;humidity
4584;DHT22;2304;47.606;12.186;2022-12-07T00:04:03;5.60;72.30
4584;DHT22;2304;47.606;12.186;2022-12-07T00:09:08;5.60;72.70
4584;DHT22;2304;47.606;12.186;2022-12-07T00:14:13;5.50;72.70
4584;DHT22;2304;47.606;12.186;2022-12-07T00:19:18;5.60;72.60
4584;DHT22;2304;47.606;12.186;2022-12-07T00:24:20;5.50;73.10
4584;DHT22;2304;47.606;12.186;2022-12-07T00:29:22;5.50;73.20
4584;DHT22;2304;47.606;12.186;2022-12-07T00:34:25;5.50;73.90
4584;DHT22;2304;47.606;12.186;2022-12-07T00:39:27;5.50;73.70
4584;DHT22;2304;47.606;12.186;2022-12-07T00:44:29;5.40;73.30
4584;DHT22;2304;47.606;12.186;2022-12-07T00:49:32;5.40;73.30
4584;DHT22;2304;47.606;12.186;2022-12-07T00:54:34;5.40;73.50
4584;DHT22;2304;47.606;12.186;2022-12-07T00:59:36;5.30;73.00
4584;DHT22;2304;47.606;12.186;2022-12-07T01:04:39;5.30;73.00
4584;DHT22;2304;47.606;12.186;2022-12-07T01:09:41;5.30;73.10
4584;DHT22;2304;47.606;12.186;2022-12-07T01:14:43;5.30;73.80
4584;DHT22;2304;47.606;12.186;2022-12-07T01:19:46;5.30;73.50
4584;DHT22;2304;47.606;12.186;2022-12-07T01:24:48;5.20;73.40
4584;DHT22;2304;47.606;12.186;2022-12-07T01:29:51;5.30;73.50
4584;DHT22;2304;47.606;12.186;2022-12-07T01:34:54;5.10;73.50
4584;DHT22;2304;47.606;12.186;2022-12-07T01:39:56;5.20;73.70
4584;DHT22;2304;47.606;12.186;2022-12-07T01:45:34;5.20;73.70
4584;DHT22;2304;47.606;12.186;2022-12-07T01:50:40;5.20;74.10
4584;DHT22;2304;47.606;12.186;2022-12-07T01:55:46;5.50;74.30
4584;DHT22;2304;47.606;12.186;2022-12-07T02:00:48;5.20;74.00
4584;DHT22;2304;47.606;12.186;2022-12-07T02:05:53;5.10;74.30
4584;DHT22;2304;47.606;12.186;2022-12-07T02:10:55;5.10;74.70
4584;DHT22;2304;47.606;12.186;2022-12-07T02:16:13;5.10;75.30
4584;DHT22;2304;47.606;12.186;2022-12-07T02:21:26;5.10;75.60
4584;DHT22;2304;47.606;12.186;2022-12-07T02:26:41;5.20;75.20
4584;DHT22;2304;47.606;12.186;2022-12-07T02:31:54;5.20;74.90
4584;DHT22;2304;47.606;12.186;2022-12-07T02:37:00;5.20;74.80
4584;DHT22;2304;47.606;12.186;2022-12-07T02:42:10;5.10;75.20
4584;DHT22;2304;47.606;12.186;2022-12-07T02:47:16;5.10;75.40
4584;DHT22;2304;47.606;12.186;2022-12-07T02:52:19;5.10;75.20
4584;DHT22;2304;47.606;12.186;2022-12-07T02:57:35;5.10;74.90
4584;DHT22;2304;47.606;12.186;2022-12-07T03:02:53;5.00;74.90
4584;DHT22;2304;47.606;12.186;2022-12-07T03:08:00;5.10;74.90
4584;DHT22;2304;47.606;12.186;2022-12-07T03:13:07;5.00;74.40
4584;DHT22;2304;47.606;12.186;2022-12-07T03:18:13;5.00;75.00
4584;DHT22;2304;47.606;12.186;2022-12-07T03:23:19;4.90;75.10
4584;DHT22;2304;47.606;12.186;2022-12-07T03:28:24;4.90;74.90
4584;DHT22;2304;47.606;12.186;2022-12-07T03:33:31;4.80;75.10
4584;DHT22;2304;47.606;12.186;2022-12-07T03:38:38;4.80;75.20
4584;DHT22;2304;47.606;12.186;2022-12-07T03:43:42;4.90;75.20
4584;DHT22;2304;47.606;12.186;2022-12-07T03:48:49;4.90;75.10
4584;DHT22;2304;47.606;12.186;2022-12-07T03:53:58;4.80;74.90
4584;DHT22;2304;47.606;12.186;2022-12-07T03:59:02;4.80;75.20
4584;DHT22;2304;47.606;12.186;2022-12-07T04:04:05;4.80;75.60
4584;DHT22;2304;47.606;12.186;2022-12-07T04:09:07;4.80;75.00
4584;DHT22;2304;47.606;12.186;2022-12-07T04:14:09;4.80;75.40
4584;DHT22;2304;47.606;12.186;2022-12-07T04:19:23;4.60;75.60
4584;DHT22;2304;47.606;12.186;2022-12-07T04:24:26;4.70;76.20
4584;DHT22;2304;47.606;12.186;2022-12-07T04:29:28;4.60;76.20
4584;DHT22;2304;47.606;12.186;2022-12-07T04:34:31;4.60;76.50
4584;DHT22;2304;47.606;12.186;2022-12-07T04:39:33;4.50;76.40
4584;DHT22;2304;47.606;12.186;2022-12-07T04:44:35;4.40;76.40
4584;DHT22;2304;47.606;12.186;2022-12-07T04:49:39;4.40;76.00
4584;DHT22;2304;47.606;12.186;2022-12-07T04:54:41;4.40;75.30
4584;DHT22;2304;47.606;12.186;2022-12-07T04:59:42;4.30;75.90
4584;DHT22;2304;47.606;12.186;2022-12-07T05:04:46;4.40;76.90
4584;DHT22;2304;47.606;12.186;2022-12-07T05:09:47;4.40;76.20
4584;DHT22;2304;47.606;12.186;2022-12-07T05:14:49;4.40;76.70
4584;DHT22;2304;47.606;12.186;2022-12-07T05:19:52;4.40;76.60
4584;DHT22;2304;47.606;12.186;2022-12-07T05:24:55;4.40;76.70
4584;DHT22;2304;47.606;12.186;2022-12-07T05:29:56;4.40;75.80
4584;DHT22;2304;47.606;12.186;2022-12-07T05:35:00;4.40;75.90
4584;DHT22;2304;47.606;12.186;2022-12-07T05:40:02;4.30;76.10
4584;DHT22;2304;47.606;12.186;2022-12-07T05:45:05;4.30;77.10
4584;DHT22;2304;47.606;12.186;2022-12-07T05:50:09;4.30;77.30
4584;DHT22;2304;47.606;12.186;2022-12-07T05:55:12;4.30;77.90
4584;DHT22;2304;47.606;12.186;2022-12-07T06:00:14;4.30;77.60
4584;DHT22;2304;47.606;12.186;2022-12-07T06:05:17;4.30;77.50
4584;DHT22;2304;47.606;12.186;2022-12-07T06:10:19;4.30;77.80
4584;DHT22;2304;47.606;12.186;2022-12-07T06:15:21;4.20;77.00
4584;DHT22;2304;47.606;12.186;2022-12-07T06:20:25;4.20;77.30
4584;DHT22;2304;47.606;12.186;2022-12-07T06:25:26;4.20;77.40
4584;DHT22;2304;47.606;12.186;2022-12-07T06:30:28;4.30;77.60
4584;DHT22;2304;47.606;12.186;2022-12-07T06:35:32;4.30;76.60
4584;DHT22;2304;47.606;12.186;2022-12-07T06:40:34;4.30;75.90
4584;DHT22;2304;47.606;12.186;2022-12-07T06:45:36;4.30;75.50
4584;DHT22;2304;47.606;12.186;2022-12-07T06:50:39;4.20;74.90
4584;DHT22;2304;47.606;12.186;2022-12-07T06:55:41;4.30;75.30
4584;DHT22;2304;47.606;12.186;2022-12-07T07:00:43;4.30;75.60
4584;DHT22;2304;47.606;12.186;2022-12-07T07:05:46;4.30;75.00
4584;DHT22;2304;47.606;12.186;2022-12-07T07:10:48;4.30;75.00
4584;DHT22;2304;47.606;12.186;2022-12-07T07:15:50;4.20;74.90
4584;DHT22;2304;47.606;12.186;2022-12-07T07:20:54;4.30;75.90
4584;DHT22;2304;47.606;12.186;2022-12-07T07:25:56;4.30;75.20
4584;DHT22;2304;47.606;12.186;2022-12-07T07:30:58;4.40;75.30
4584;DHT22;2304;47.606;12.186;2022-12-07T07:36:01;4.40;74.80
4584;DHT22;2304;47.606;12.186;2022-12-07T07:41:03;4.40;74.60
4584;DHT22;2304;47.606;12.186;2022-12-07T07:46:05;4.40;75.20
4584;DHT22;2304;47.606;12.186;2022-12-07T07:51:08;4.50;75.10
4584;DHT22;2304;47.606;12.186;2022-12-07T07:56:10;4.50;74.80
4584;DHT22;2304;47.606;12.186;2022-12-07T08:01:12;4.50;75.30
4584;DHT22;2304;47.606;12.186;2022-12-07T08:06:16;4.50;75.10
4584;DHT22;2304;47.606;12.186;2022-12-07T08:11:18;4.40;75.00
4584;DHT22;2304;47.606;12.186;2022-12-07T08:16:20;4.50;75.70
4584;DHT22;2304;47.606;12.186;2022-12-07T08:21:23;4.40;75.90
4584;DHT22;2304;47.606;12.186;2022-12-07T08:26:25;4.60;76.70
4584;DHT22;2304;47.606;12.186;2022-12-07T08:31:27;4.40;76.70
4584;DHT22;2304;47.606;12.186;2022-12-07T08:36:30;4.40;77.50
4584;DHT22;2304;47.606;12.186;2022-12-07T08:41:32;4.40;77.20
4584;DHT22;2304;47.606;12.186;2022-12-07T08:46:37;4.40;76.20
4584;DHT22;2304;47.606;12.186;2022-12-07T08:51:41;4.30;76.70
4584;DHT22;2304;47.606;12.186;2022-12-07T08:56:44;4.30;76.00
4584;DHT22;2304;47.606;12.186;2022-12-07T09:01:47;4.40;75.50
4584;DHT22;2304;47.606;12.186;2022-12-07T09:06:50;4.30;73.80
4584;DHT22;2304;47.606;12.186;2022-12-07T09:11:52;4.40;73.80
4584;DHT22;2304;47.606;12.186;2022-12-07T09:16:54;4.40;73.70
4584;DHT22;2304;47.606;12.186;2022-12-07T09:21:57;4.40;73.20
4584;DHT22;2304;47.606;12.186;2022-12-07T09:26:59;4.40;73.00
4584;DHT22;2304;47.606;12.186;2022-12-07T09:32:02;4.50;72.70
4584;DHT22;2304;47.606;12.186;2022-12-07T09:37:05;4.50;72.80
4584;DHT22;2304;47.606;12.186;2022-12-07T09:42:08;4.60;73.50
4584;DHT22;2304;47.606;12.186;2022-12-07T09:47:11;4.70;73.40
4584;DHT22;2304;47.606;12.186;2022-12-07T09:52:20;4.80;73.00
4584;DHT22;2304;47.606;12.186;2022-12-07T09:57:29;4.80;74.10
4584;DHT22;2304;47.606;12.186;2022-12-07T10:02:38;4.90;74.20
4584;DHT22;2304;47.606;12.186;2022-12-07T10:07:43;4.80;73.30
4584;DHT22;2304;47.606;12.186;2022-12-07T10:12:54;4.80;73.80
4584;DHT22;2304;47.606;12.186;2022-12-07T10:17:56;4.70;74.10
4584;DHT22;2304;47.606;12.186;2022-12-07T10:23:03;4.80;73.70
4584;DHT22;2304;47.606;12.186;2022-12-07T10:28:14;4.90;72.50
4584;DHT22;2304;47.606;12.186;2022-12-07T10:33:31;5.00;69.20
4584;DHT22;2304;47.606;12.186;2022-12-07T10:38:45;5.00;71.40
4584;DHT22;2304;47.606;12.186;2022-12-07T10:43:49;5.10;71.80
4584;DHT22;2304;47.606;12.186;2022-12-07T10:48:59;5.10;70.00
4584;DHT22;2304;47.606;12.186;2022-12-07T10:54:12;5.20;70.50
4584;DHT22;2304;47.606;12.186;2022-12-07T10:59:29;5.10;70.60
4584;DHT22;2304;47.606;12.186;2022-12-07T11:04:41;5.20;70.30
4584;DHT22;2304;47.606;12.186;2022-12-07T11:10:02;5.30;70.00
4584;DHT22;2304;47.606;12.186;2022-12-07T11:15:15;5.40;69.10
4584;DHT22;2304;47.606;12.186;2022-12-07T11:20:33;5.50;70.00
4584;DHT22;2304;47.606;12.186;2022-12-07T11:25:43;5.60;69.80
4584;DHT22;2304;47.606;12.186;2022-12-07T11:30:54;5.50;69.10
4584;DHT22;2304;47.606;12.186;2022-12-07T11:36:05;5.50;69.30
4584;DHT22;2304;47.606;12.186;2022-12-07T11:41:12;5.50;69.20
4584;DHT22;2304;47.606;12.186;2022-12-07T11:46:15;5.50;68.70
4584;DHT22;2304;47.606;12.186;2022-12-07T11:51:19;5.60;68.80
4584;DHT22;2304;47.606;12.186;2022-12-07T11:56:26;5.60;68.90
4584;DHT22;2304;47.606;12.186;2022-12-07T12:01:42;5.60;68.00
4584;DHT22;2304;47.606;12.186;2022-12-07T12:06:47;5.60;68.00
4584;DHT22;2304;47.606;12.186;2022-12-07T12:12:10;5.60;67.50
4584;DHT22;2304;47.606;12.186;2022-12-07T12:17:28;5.70;66.80
4584;DHT22;2304;47.606;12.186;2022-12-07T12:22:35;5.70;65.90
4584;DHT22;2304;47.606;12.186;2022-12-07T12:27:40;5.90;64.90
4584;DHT22;2304;47.606;12.186;2022-12-07T12:32:47;6.10;64.80
4584;DHT22;2304;47.606;12.186;2022-12-07T12:37:49;6.10;64.00
4584;DHT22;2304;47.606;12.186;2022-12-07T12:42:55;6.20;63.40
4584;DHT22;2304;47.606;12.186;2022-12-07T12:47:58;6.20;63.80
4584;DHT22;2304;47.606;12.186;2022-12-07T12:53:16;6.20;64.10
4584;DHT22;2304;47.606;12.186;2022-12-07T12:58:31;6.40;66.00
4584;DHT22;2304;47.606;12.186;2022-12-07T13:03:33;6.40;64.50
4584;DHT22;2304;47.606;12.186;2022-12-07T13:08:40;6.40;62.90
4584;DHT22;2304;47.606;12.186;2022-12-07T13:13:44;6.50;63.70
4584;DHT22;2304;47.606;12.186;2022-12-07T13:18:46;6.40;64.30
4584;DHT22;2304;47.606;12.186;2022-12-07T13:23:55;6.40;64.50
4584;DHT22;2304;47.606;12.186;2022-12-07T13:29:10;6.40;64.60
4584;DHT22;2304;47.606;12.186;2022-12-07T13:34:31;6.50;64.80
4584;DHT22;2304;47.606;12.186;2022-12-07T13:39:33;6.50;64.80
4584;DHT22;2304;47.606;12.186;2022-12-07T13:44:40;6.40;64.00
4584;DHT22;2304;47.606;12.186;2022-12-07T13:49:47;6.50;64.60
4584;DHT22;2304;47.606;12.186;2022-12-07T13:54:56;6.50;65.20
4584;DHT22;2304;47.606;12.186;2022-12-07T14:00:00;6.50;65.20
4584;DHT22;2304;47.606;12.186;2022-12-07T14:05:12;6.50;66.10
4584;DHT22;2304;47.606;12.186;2022-12-07T14:10:26;6.60;67.10
4584;DHT22;2304;47.606;12.186;2022-12-07T14:15:31;6.50;66.00
4584;DHT22;2304;47.606;12.186;2022-12-07T14:20:34;6.50;65.70
4584;DHT22;2304;47.606;12.186;2022-12-07T14:25:45;6.50;66.30
4584;DHT22;2304;47.606;12.186;2022-12-07T14:30:48;6.70;67.00
4584;DHT22;2304;47.606;12.186;2022-12-07T14:35:50;6.50;67.00
4584;DHT22;2304;47.606;12.186;2022-12-07T14:40:55;6.50;67.50
4584;DHT22;2304;47.606;12.186;2022-12-07T14:46:20;6.40;66.40
4584;DHT22;2304;47.606;12.186;2022-12-07T14:51:22;6.30;65.60
4584;DHT22;2304;47.606;12.186;2022-12-07T14:56:23;6.20;65.60
4584;DHT22;2304;47.606;12.186;2022-12-07T15:01:29;6.20;66.00
4584;DHT22;2304;47.606;12.186;2022-12-07T15:06:32;6.20;66.00
4584;DHT22;2304;47.606;12.186;2022-12-07T15:11:34;6.50;66.60
4584;DHT22;2304;47.606;12.186;2022-12-07T15:16:38;6.20;66.70
4584;DHT22;2304;47.606;12.186;2022-12-07T15:21:41;6.20;66.70
4584;DHT22;2304;47.606;12.186;2022-12-07T15:26:43;6.10;66.90
4584;DHT22;2304;47.606;12.186;2022-12-07T15:31:48;6.10;67.50
4584;DHT22;2304;47.606;12.186;2022-12-07T15:36:50;6.10;67.90
4584;DHT22;2304;47.606;12.186;2022-12-07T15:41:52;6.10;68.10
4584;DHT22;2304;47.606;12.186;2022-12-07T15:46:55;6.10;69.00
4584;DHT22;2304;47.606;12.186;2022-12-07T15:51:57;6.00;69.10
4584;DHT22;2304;47.606;12.186;2022-12-07T15:56:59;6.00;69.40
4584;DHT22;2304;47.606;12.186;2022-12-07T16:02:02;6.00;69.60
4584;DHT22;2304;47.606;12.186;2022-12-07T16:07:05;6.00;69.70
4584;DHT22;2304;47.606;12.186;2022-12-07T16:12:07;6.00;70.10
4584;DHT22;2304;47.606;12.186;2022-12-07T16:17:10;6.00;70.00
4584;DHT22;2304;47.606;12.186;2022-12-07T16:22:12;6.00;70.30
4584;DHT22;2304;47.606;12.186;2022-12-07T16:27:14;6.00;70.90
4584;DHT22;2304;47.606;12.186;2022-12-07T16:32:17;5.90;71.10
4584;DHT22;2304;47.606;12.186;2022-12-07T16:37:19;5.90;70.90
4584;DHT22;2304;47.606;12.186;2022-12-07T16:42:21;5.90;70.80
4584;DHT22;2304;47.606;12.186;2022-12-07T16:47:24;5.90;70.50
4584;DHT22;2304;47.606;12.186;2022-12-07T16:52:26;5.90;70.60
4584;DHT22;2304;47.606;12.186;2022-12-07T16:57:30;5.80;71.10
4584;DHT22;2304;47.606;12.186;2022-12-07T17:02:33;5.80;71.40
4584;DHT22;2304;47.606;12.186;2022-12-07T17:07:35;6.00;71.50
4584;DHT22;2304;47.606;12.186;2022-12-07T17:12:37;5.80;72.40
4584;DHT22;2304;47.606;12.186;2022-12-07T17:17:40;5.80;71.80
4584;DHT22;2304;47.606;12.186;2022-12-07T17:22:42;5.90;72.10
4584;DHT22;2304;47.606;12.186;2022-12-07T17:27:45;5.80;71.90
4584;DHT22;2304;47.606;12.186;2022-12-07T17:32:52;5.80;72.10
4584;DHT22;2304;47.606;12.186;2022-12-07T17:37:54;5.80;72.10
4584;DHT22;2304;47.606;12.186;2022-12-07T17:42:56;5.70;72.30
4584;DHT22;2304;47.606;12.186;2022-12-07T17:47:59;6.00;72.60
4584;DHT22;2304;47.606;12.186;2022-12-07T17:53:01;5.80;72.10
4584;DHT22;2304;47.606;12.186;2022-12-07T17:58:13;5.70;72.40
4584;DHT22;2304;47.606;12.186;2022-12-07T18:03:16;5.60;72.60
4584;DHT22;2304;47.606;12.186;2022-12-07T18:08:18;5.60;72.50
4584;DHT22;2304;47.606;12.186;2022-12-07T18:13:20;5.70;72.80
4584;DHT22;2304;47.606;12.186;2022-12-07T18:18:40;5.70;72.70
4584;DHT22;2304;47.606;12.186;2022-12-07T18:23:42;5.60;72.40
4584;DHT22;2304;47.606;12.186;2022-12-07T18:28:45;5.70;72.80
4584;DHT22;2304;47.606;12.186;2022-12-07T18:33:48;5.70;73.00
4584;DHT22;2304;47.606;12.186;2022-12-07T18:38:50;5.60;73.00
4584;DHT22;2304;47.606;12.186;2022-12-07T18:43:52;5.60;72.80
4584;DHT22;2304;47.606;12.186;2022-12-07T18:48:56;5.60;72.40
4584;DHT22;2304;47.606;12.186;2022-12-07T18:53:58;5.60;72.60
4584;DHT22;2304;47.606;12.186;2022-12-07T18:59:02;5.60;72.60
4584;DHT22;2304;47.606;12.186;2022-12-07T19:04:23;5.60;72.70
4584;DHT22;2304;47.606;12.186;2022-12-07T19:09:25;5.70;73.00
4584;DHT22;2304;47.606;12.186;2022-12-07T19:14:29;5.50;73.00
4584;DHT22;2304;47.606;12.186;2022-12-07T19:19:34;5.50;73.40
4584;DHT22;2304;47.606;12.186;2022-12-07T19:24:37;5.40;73.10
4584;DHT22;2304;47.606;12.186;2022-12-07T19:29:39;5.40;73.00
4584;DHT22;2304;47.606;12.186;2022-12-07T19:34:44;5.40;73.20
4584;DHT22;2304;47.606;12.186;2022-12-07T19:39:46;5.40;73.30
4584;DHT22;2304;47.606;12.186;2022-12-07T19:44:51;5.60;74.00
4584;DHT22;2304;47.606;12.186;2022-12-07T19:49:54;5.40;73.20
4584;DHT22;2304;47.606;12.186;2022-12-07T19:54:56;5.30;73.40
4584;DHT22;2304;47.606;12.186;2022-12-07T19:59:58;5.30;73.30
4584;DHT22;2304;47.606;12.186;2022-12-07T20:05:01;5.60;73.40
4584;DHT22;2304;47.606;12.186;2022-12-07T20:10:03;5.30;73.30
4584;DHT22;2304;47.606;12.186;2022-12-07T20:15:06;5.30;73.70
4584;DHT22;2304;47.606;12.186;2022-12-07T20:20:11;5.30;73.40
4584;DHT22;2304;47.606;12.186;2022-12-07T20:25:13;5.30;73.80
4584;DHT22;2304;47.606;12.186;2022-12-07T20:30:17;5.20;73.80
4584;DHT22;2304;47.606;12.186;2022-12-07T20:35:20;5.20;73.90
4584;DHT22;2304;47.606;12.186;2022-12-07T20:40:22;5.20;73.80
4584;DHT22;2304;47.606;12.186;2022-12-07T20:45:24;5.20;73.80
4584;DHT22;2304;47.606;12.186;2022-12-07T20:50:27;5.20;73.80
4584;DHT22;2304;47.606;12.186;2022-12-07T20:55:29;5.20;73.70
4584;DHT22;2304;47.606;12.186;2022-12-07T21:00:31;5.10;73.60
4584;DHT22;2304;47.606;12.186;2022-12-07T21:05:34;5.10;73.60
4584;DHT22;2304;47.606;12.186;2022-12-07T21:10:36;5.30;75.90
4584;DHT22;2304;47.606;12.186;2022-12-07T21:15:38;5.20;73.50
4584;DHT22;2304;47.606;12.186;2022-12-07T21:20:41;5.20;73.30
4584;DHT22;2304;47.606;12.186;2022-12-07T21:25:43;5.20;74.20
4584;DHT22;2304;47.606;12.186;2022-12-07T21:30:45;5.20;73.70
4584;DHT22;2304;47.606;12.186;2022-12-07T21:35:48;5.10;74.20
4584;DHT22;2304;47.606;12.186;2022-12-07T21:40:50;5.10;74.40
4584;DHT22;2304;47.606;12.186;2022-12-07T21:45:52;5.10;74.00
4584;DHT22;2304;47.606;12.186;2022-12-07T21:51:03;5.10;74.30
4584;DHT22;2304;47.606;12.186;2022-12-07T21:56:12;5.00;74.80
4584;DHT22;2304;47.606;12.186;2022-12-07T22:01:16;5.00;75.10
4584;DHT22;2304;47.606;12.186;2022-12-07T22:06:21;5.00;74.80
4584;DHT22;2304;47.606;12.186;2022-12-07T22:11:23;4.90;75.20
4584;DHT22;2304;47.606;12.186;2022-12-07T22:16:25;5.00;76.80
4584;DHT22;2304;47.606;12.186;2022-12-07T22:21:29;5.00;75.50
4584;DHT22;2304;47.606;12.186;2022-12-07T22:26:31;5.30;75.30
4584;DHT22;2304;47.606;12.186;2022-12-07T22:31:33;5.20;74.60
4584;DHT22;2304;47.606;12.186;2022-12-07T22:36:37;5.00;74.80
4584;DHT22;2304;47.606;12.186;2022-12-07T22:41:39;4.90;75.30
4584;DHT22;2304;47.606;12.186;2022-12-07T22:46:40;5.00;74.80
4584;DHT22;2304;47.606;12.186;2022-12-07T22:51:44;5.00;75.00
4584;DHT22;2304;47.606;12.186;2022-12-07T22:56:45;5.00;75.00
4584;DHT22;2304;47.606;12.186;2022-12-07T23:01:47;4.90;75.30
4584;DHT22;2304;47.606;12.186;2022-12-07T23:06:51;5.00;75.40
4584;DHT22;2304;47.606;12.186;2022-12-07T23:11:52;5.00;75.30
4584;DHT22;2304;47.606;12.186;2022-12-07T23:17:18;4.90;75.50
4584;DHT22;2304;47.606;12.186;2022-12-07T23:22:21;4.90;76.00
4584;DHT22;2304;47.606;12.186;2022-12-07T23:27:23;4.90;76.00
4584;DHT22;2304;47.606;12.186;2022-12-07T23:32:25;5.00;75.30
4584;DHT22;2304;47.606;12.186;2022-12-07T23:37:28;5.00;75.60
4584;DHT22;2304;47.606;12.186;2022-12-07T23:42:32;4.90;76.00
4584;DHT22;2304;47.606;12.186;2022-12-07T23:47:34;4.90;75.80
4584;DHT22;2304;47.606;12.186;2022-12-07T23:52:37;4.90;75.90
4584;DHT22;2304;47.606;12.186;2022-12-07T23:57:39;4.90;75.40
